Terminal Aerodrome Forecast
Issued by NWS Cleveland, OH

Home | Current Version | Previous Version | Graphics & Text | Print | Product List | Glossary On
Versions: 1 2 3 4 5 6 7 8 9 10 11 12 13 14 15 16 17 18 19 20 21 22
429
FTUS41 KCLE 211156 AAA
TAFYNG
TAF AMD
KYNG 211156Z 2112/2212 14006KT 6SM BR BKN050
     FM211500 18010KT P6SM BKN025
     FM211800 19010KT P6SM BKN035
     FM220400 15004KT 4SM BR OVC050=

USA.gov is the U.S. government's official web portal to all federal, state and local government web resources and services.